sensor_id;sensor_type;location;lat;lon;timestamp;P1;durP1;ratioP1;P2;durP2;ratioP2
3643;SDS011;1838;50.742;7.158;2024-01-07T00:00:57;39.03;;;16.70;;
3643;SDS011;1838;50.742;7.158;2024-01-07T00:03:22;42.87;;;19.00;;
3643;SDS011;1838;50.742;7.158;2024-01-07T00:05:48;38.33;;;16.80;;
3643;SDS011;1838;50.742;7.158;2024-01-07T00:08:13;38.30;;;16.80;;
3643;SDS011;1838;50.742;7.158;2024-01-07T00:10:39;39.83;;;16.50;;
3643;SDS011;1838;50.742;7.158;2024-01-07T00:13:04;41.87;;;17.67;;
3643;SDS011;1838;50.742;7.158;2024-01-07T00:15:30;41.90;;;18.10;;
3643;SDS011;1838;50.742;7.158;2024-01-07T00:17:56;39.70;;;17.07;;
3643;SDS011;1838;50.742;7.158;2024-01-07T00:20:22;41.60;;;16.90;;
3643;SDS011;1838;50.742;7.158;2024-01-07T00:22:47;40.63;;;17.40;;
3643;SDS011;1838;50.742;7.158;2024-01-07T00:25:13;42.50;;;16.93;;
3643;SDS011;1838;50.742;7.158;2024-01-07T00:27:38;39.23;;;17.37;;
3643;SDS011;1838;50.742;7.158;2024-01-07T00:30:04;43.00;;;16.97;;
3643;SDS011;1838;50.742;7.158;2024-01-07T00:32:30;37.27;;;16.53;;
3643;SDS011;1838;50.742;7.158;2024-01-07T00:34:55;38.20;;;16.50;;
3643;SDS011;1838;50.742;7.158;2024-01-07T00:37:21;38.67;;;16.27;;
3643;SDS011;1838;50.742;7.158;2024-01-07T00:39:46;42.80;;;18.17;;
3643;SDS011;1838;50.742;7.158;2024-01-07T00:42:12;41.53;;;17.37;;
3643;SDS011;1838;50.742;7.158;2024-01-07T00:44:37;41.07;;;17.20;;
3643;SDS011;1838;50.742;7.158;2024-01-07T00:47:03;42.77;;;17.47;;
3643;SDS011;1838;50.742;7.158;2024-01-07T00:49:28;38.43;;;17.30;;
3643;SDS011;1838;50.742;7.158;2024-01-07T00:51:54;34.67;;;15.37;;
3643;SDS011;1838;50.742;7.158;2024-01-07T00:54:19;36.90;;;15.97;;
3643;SDS011;1838;50.742;7.158;2024-01-07T00:56:45;38.17;;;16.10;;
3643;SDS011;1838;50.742;7.158;2024-01-07T00:59:11;38.10;;;17.10;;
3643;SDS011;1838;50.742;7.158;2024-01-07T01:01:36;36.60;;;15.27;;
3643;SDS011;1838;50.742;7.158;2024-01-07T01:04:02;38.60;;;15.20;;
3643;SDS011;1838;50.742;7.158;2024-01-07T01:06:27;35.70;;;15.83;;
3643;SDS011;1838;50.742;7.158;2024-01-07T01:08:53;40.30;;;16.70;;
3643;SDS011;1838;50.742;7.158;2024-01-07T01:11:18;39.03;;;14.90;;
3643;SDS011;1838;50.742;7.158;2024-01-07T01:13:44;41.63;;;15.93;;
3643;SDS011;1838;50.742;7.158;2024-01-07T01:16:09;40.90;;;15.93;;
3643;SDS011;1838;50.742;7.158;2024-01-07T01:18:35;33.90;;;14.40;;
3643;SDS011;1838;50.742;7.158;2024-01-07T01:21:00;37.37;;;15.20;;
3643;SDS011;1838;50.742;7.158;2024-01-07T01:23:26;33.73;;;14.30;;
3643;SDS011;1838;50.742;7.158;2024-01-07T01:25:51;32.40;;;13.07;;
3643;SDS011;1838;50.742;7.158;2024-01-07T01:28:17;36.83;;;15.27;;
3643;SDS011;1838;50.742;7.158;2024-01-07T01:30:42;33.27;;;13.77;;
3643;SDS011;1838;50.742;7.158;2024-01-07T01:33:08;34.13;;;13.60;;
3643;SDS011;1838;50.742;7.158;2024-01-07T01:35:33;29.63;;;13.90;;
3643;SDS011;1838;50.742;7.158;2024-01-07T01:37:59;27.30;;;14.03;;
3643;SDS011;1838;50.742;7.158;2024-01-07T01:40:24;35.13;;;14.30;;
3643;SDS011;1838;50.742;7.158;2024-01-07T01:42:50;28.03;;;13.20;;
3643;SDS011;1838;50.742;7.158;2024-01-07T01:45:15;30.90;;;12.63;;
3643;SDS011;1838;50.742;7.158;2024-01-07T01:47:41;29.00;;;13.23;;
3643;SDS011;1838;50.742;7.158;2024-01-07T01:50:07;25.87;;;12.33;;
3643;SDS011;1838;50.742;7.158;2024-01-07T01:52:33;26.70;;;12.10;;
3643;SDS011;1838;50.742;7.158;2024-01-07T01:55:00;26.90;;;12.70;;
3643;SDS011;1838;50.742;7.158;2024-01-07T01:57:28;26.50;;;12.43;;
3643;SDS011;1838;50.742;7.158;2024-01-07T02:00:00;27.00;;;12.93;;
3643;SDS011;1838;50.742;7.158;2024-01-07T02:02:30;33.73;;;13.97;;
3643;SDS011;1838;50.742;7.158;2024-01-07T02:04:57;26.87;;;12.60;;
3643;SDS011;1838;50.742;7.158;2024-01-07T02:07:24;30.50;;;13.00;;
3643;SDS011;1838;50.742;7.158;2024-01-07T02:09:49;28.63;;;11.43;;
3643;SDS011;1838;50.742;7.158;2024-01-07T02:12:15;28.20;;;13.00;;
3643;SDS011;1838;50.742;7.158;2024-01-07T02:14:40;26.70;;;12.37;;
3643;SDS011;1838;50.742;7.158;2024-01-07T02:17:06;25.27;;;11.60;;
3643;SDS011;1838;50.742;7.158;2024-01-07T02:19:32;27.57;;;11.67;;
3643;SDS011;1838;50.742;7.158;2024-01-07T02:21:57;24.27;;;12.10;;
3643;SDS011;1838;50.742;7.158;2024-01-07T02:24:23;23.33;;;10.50;;
3643;SDS011;1838;50.742;7.158;2024-01-07T02:26:48;21.80;;;10.73;;
3643;SDS011;1838;50.742;7.158;2024-01-07T02:29:14;22.43;;;10.77;;
3643;SDS011;1838;50.742;7.158;2024-01-07T02:31:39;23.03;;;10.57;;
3643;SDS011;1838;50.742;7.158;2024-01-07T02:34:05;21.13;;;10.70;;
3643;SDS011;1838;50.742;7.158;2024-01-07T02:36:30;28.10;;;11.40;;
3643;SDS011;1838;50.742;7.158;2024-01-07T02:38:56;24.23;;;11.50;;
3643;SDS011;1838;50.742;7.158;2024-01-07T02:41:21;23.90;;;11.40;;
3643;SDS011;1838;50.742;7.158;2024-01-07T02:43:50;23.50;;;10.70;;
3643;SDS011;1838;50.742;7.158;2024-01-07T02:46:16;26.43;;;12.50;;
3643;SDS011;1838;50.742;7.158;2024-01-07T02:48:41;23.73;;;10.57;;
3643;SDS011;1838;50.742;7.158;2024-01-07T02:51:07;19.83;;;10.70;;
3643;SDS011;1838;50.742;7.158;2024-01-07T02:53:33;25.33;;;10.80;;
3643;SDS011;1838;50.742;7.158;2024-01-07T02:55:59;24.50;;;11.60;;
3643;SDS011;1838;50.742;7.158;2024-01-07T02:58:25;22.87;;;10.13;;
3643;SDS011;1838;50.742;7.158;2024-01-07T03:00:50;27.67;;;11.80;;
3643;SDS011;1838;50.742;7.158;2024-01-07T03:03:16;20.50;;;11.03;;
3643;SDS011;1838;50.742;7.158;2024-01-07T03:05:41;21.80;;;10.23;;
3643;SDS011;1838;50.742;7.158;2024-01-07T03:08:07;23.57;;;10.30;;
3643;SDS011;1838;50.742;7.158;2024-01-07T03:10:32;21.50;;;11.20;;
3643;SDS011;1838;50.742;7.158;2024-01-07T03:12:58;23.37;;;11.33;;
3643;SDS011;1838;50.742;7.158;2024-01-07T03:15:24;22.60;;;10.37;;
3643;SDS011;1838;50.742;7.158;2024-01-07T03:17:50;20.73;;;9.97;;
3643;SDS011;1838;50.742;7.158;2024-01-07T03:20:15;26.67;;;11.07;;
3643;SDS011;1838;50.742;7.158;2024-01-07T03:22:41;25.50;;;11.83;;
3643;SDS011;1838;50.742;7.158;2024-01-07T03:25:07;27.13;;;11.30;;
3643;SDS011;1838;50.742;7.158;2024-01-07T03:27:32;28.97;;;11.70;;
3643;SDS011;1838;50.742;7.158;2024-01-07T03:29:58;32.07;;;12.33;;
3643;SDS011;1838;50.742;7.158;2024-01-07T03:32:23;29.03;;;12.67;;
3643;SDS011;1838;50.742;7.158;2024-01-07T03:34:49;30.00;;;12.60;;
3643;SDS011;1838;50.742;7.158;2024-01-07T03:37:14;30.30;;;13.10;;
3643;SDS011;1838;50.742;7.158;2024-01-07T03:39:42;30.97;;;13.23;;
3643;SDS011;1838;50.742;7.158;2024-01-07T03:42:09;32.93;;;13.67;;
3643;SDS011;1838;50.742;7.158;2024-01-07T03:44:37;36.40;;;14.57;;
3643;SDS011;1838;50.742;7.158;2024-01-07T03:47:03;33.80;;;14.53;;
3643;SDS011;1838;50.742;7.158;2024-01-07T03:49:29;37.10;;;15.27;;
3643;SDS011;1838;50.742;7.158;2024-01-07T03:51:54;34.00;;;14.23;;
3643;SDS011;1838;50.742;7.158;2024-01-07T03:54:20;41.80;;;16.40;;
3643;SDS011;1838;50.742;7.158;2024-01-07T03:56:45;36.47;;;15.57;;
3643;SDS011;1838;50.742;7.158;2024-01-07T03:59:11;40.37;;;15.50;;
3643;SDS011;1838;50.742;7.158;2024-01-07T04:01:36;43.00;;;17.13;;
3643;SDS011;1838;50.742;7.158;2024-01-07T04:04:02;40.00;;;16.03;;
3643;SDS011;1838;50.742;7.158;2024-01-07T04:06:28;38.27;;;16.13;;
3643;SDS011;1838;50.742;7.158;2024-01-07T04:08:53;43.07;;;15.97;;
3643;SDS011;1838;50.742;7.158;2024-01-07T04:11:19;43.00;;;17.73;;
3643;SDS011;1838;50.742;7.158;2024-01-07T04:13:44;37.40;;;15.70;;
3643;SDS011;1838;50.742;7.158;2024-01-07T04:16:19;36.20;;;15.80;;
3643;SDS011;1838;50.742;7.158;2024-01-07T04:18:46;32.23;;;15.03;;
3643;SDS011;1838;50.742;7.158;2024-01-07T04:21:12;37.20;;;16.77;;
3643;SDS011;1838;50.742;7.158;2024-01-07T04:23:38;39.90;;;15.70;;
3643;SDS011;1838;50.742;7.158;2024-01-07T04:26:05;45.00;;;17.33;;
3643;SDS011;1838;50.742;7.158;2024-01-07T04:28:31;34.30;;;15.73;;
3643;SDS011;1838;50.742;7.158;2024-01-07T04:30:57;33.90;;;15.13;;
3643;SDS011;1838;50.742;7.158;2024-01-07T04:33:22;34.33;;;14.80;;
3643;SDS011;1838;50.742;7.158;2024-01-07T04:35:48;33.93;;;14.20;;
3643;SDS011;1838;50.742;7.158;2024-01-07T04:38:13;33.70;;;14.50;;
3643;SDS011;1838;50.742;7.158;2024-01-07T04:40:39;35.10;;;14.63;;
3643;SDS011;1838;50.742;7.158;2024-01-07T04:43:04;31.50;;;13.43;;
3643;SDS011;1838;50.742;7.158;2024-01-07T04:45:30;31.00;;;14.87;;
3643;SDS011;1838;50.742;7.158;2024-01-07T04:47:56;27.90;;;13.50;;
3643;SDS011;1838;50.742;7.158;2024-01-07T04:50:21;29.00;;;12.97;;
3643;SDS011;1838;50.742;7.158;2024-01-07T04:52:47;33.13;;;15.07;;
3643;SDS011;1838;50.742;7.158;2024-01-07T04:55:12;25.70;;;12.83;;
3643;SDS011;1838;50.742;7.158;2024-01-07T04:57:38;33.23;;;14.57;;
3643;SDS011;1838;50.742;7.158;2024-01-07T05:00:03;29.43;;;13.37;;
3643;SDS011;1838;50.742;7.158;2024-01-07T05:02:30;26.90;;;13.57;;
3643;SDS011;1838;50.742;7.158;2024-01-07T05:04:55;36.40;;;13.80;;
3643;SDS011;1838;50.742;7.158;2024-01-07T05:07:20;27.40;;;13.80;;
3643;SDS011;1838;50.742;7.158;2024-01-07T05:09:46;30.10;;;14.07;;
3643;SDS011;1838;50.742;7.158;2024-01-07T05:12:11;31.73;;;13.03;;
3643;SDS011;1838;50.742;7.158;2024-01-07T05:14:37;29.83;;;13.73;;
3643;SDS011;1838;50.742;7.158;2024-01-07T05:17:03;34.70;;;15.07;;
3643;SDS011;1838;50.742;7.158;2024-01-07T05:19:29;34.40;;;14.27;;
3643;SDS011;1838;50.742;7.158;2024-01-07T05:21:54;31.03;;;14.03;;
3643;SDS011;1838;50.742;7.158;2024-01-07T05:24:21;29.03;;;13.07;;
3643;SDS011;1838;50.742;7.158;2024-01-07T05:26:46;33.80;;;13.50;;
3643;SDS011;1838;50.742;7.158;2024-01-07T05:29:12;29.33;;;14.03;;
3643;SDS011;1838;50.742;7.158;2024-01-07T05:31:38;30.70;;;13.47;;
3643;SDS011;1838;50.742;7.158;2024-01-07T05:34:04;38.90;;;15.13;;
3643;SDS011;1838;50.742;7.158;2024-01-07T05:36:30;33.20;;;13.87;;
3643;SDS011;1838;50.742;7.158;2024-01-07T05:38:55;34.50;;;13.80;;
3643;SDS011;1838;50.742;7.158;2024-01-07T05:41:21;29.07;;;13.20;;
3643;SDS011;1838;50.742;7.158;2024-01-07T05:43:46;33.13;;;15.07;;
3643;SDS011;1838;50.742;7.158;2024-01-07T05:46:12;32.40;;;14.87;;
3643;SDS011;1838;50.742;7.158;2024-01-07T05:48:46;32.70;;;14.77;;
3643;SDS011;1838;50.742;7.158;2024-01-07T05:51:12;35.23;;;15.10;;
3643;SDS011;1838;50.742;7.158;2024-01-07T05:53:39;28.27;;;13.67;;
3643;SDS011;1838;50.742;7.158;2024-01-07T05:56:05;31.90;;;14.90;;
3643;SDS011;1838;50.742;7.158;2024-01-07T05:58:30;32.37;;;13.97;;
3643;SDS011;1838;50.742;7.158;2024-01-07T06:00:56;29.30;;;15.30;;
3643;SDS011;1838;50.742;7.158;2024-01-07T06:03:21;35.30;;;16.60;;
3643;SDS011;1838;50.742;7.158;2024-01-07T06:05:47;38.77;;;15.70;;
3643;SDS011;1838;50.742;7.158;2024-01-07T06:08:12;36.57;;;14.80;;
3643;SDS011;1838;50.742;7.158;2024-01-07T06:10:38;34.60;;;15.37;;
3643;SDS011;1838;50.742;7.158;2024-01-07T06:13:05;37.40;;;15.53;;
3643;SDS011;1838;50.742;7.158;2024-01-07T06:15:30;44.97;;;16.37;;
3643;SDS011;1838;50.742;7.158;2024-01-07T06:17:55;38.70;;;16.53;;
3643;SDS011;1838;50.742;7.158;2024-01-07T06:20:21;39.63;;;16.87;;
3643;SDS011;1838;50.742;7.158;2024-01-07T06:22:47;41.00;;;17.93;;
3643;SDS011;1838;50.742;7.158;2024-01-07T06:25:13;35.40;;;16.50;;
3643;SDS011;1838;50.742;7.158;2024-01-07T06:27:38;37.50;;;16.17;;
3643;SDS011;1838;50.742;7.158;2024-01-07T06:30:05;34.80;;;17.30;;
3643;SDS011;1838;50.742;7.158;2024-01-07T06:32:31;37.10;;;16.90;;
3643;SDS011;1838;50.742;7.158;2024-01-07T06:34:57;40.00;;;17.10;;
3643;SDS011;1838;50.742;7.158;2024-01-07T06:37:23;41.20;;;17.00;;
3643;SDS011;1838;50.742;7.158;2024-01-07T06:39:48;40.03;;;15.73;;
3643;SDS011;1838;50.742;7.158;2024-01-07T06:42:14;35.47;;;16.07;;
3643;SDS011;1838;50.742;7.158;2024-01-07T06:44:39;37.20;;;17.63;;
3643;SDS011;1838;50.742;7.158;2024-01-07T06:47:05;32.30;;;15.87;;
3643;SDS011;1838;50.742;7.158;2024-01-07T06:49:31;36.13;;;15.63;;
3643;SDS011;1838;50.742;7.158;2024-01-07T06:51:56;40.07;;;16.20;;
3643;SDS011;1838;50.742;7.158;2024-01-07T06:54:22;34.83;;;17.17;;
3643;SDS011;1838;50.742;7.158;2024-01-07T06:56:47;35.70;;;17.00;;
3643;SDS011;1838;50.742;7.158;2024-01-07T06:59:13;34.53;;;16.57;;
3643;SDS011;1838;50.742;7.158;2024-01-07T07:01:38;36.03;;;16.67;;
3643;SDS011;1838;50.742;7.158;2024-01-07T07:04:04;36.00;;;17.00;;
3643;SDS011;1838;50.742;7.158;2024-01-07T07:06:29;31.10;;;15.50;;
3643;SDS011;1838;50.742;7.158;2024-01-07T07:08:55;38.53;;;15.80;;
3643;SDS011;1838;50.742;7.158;2024-01-07T07:11:20;30.50;;;14.83;;
3643;SDS011;1838;50.742;7.158;2024-01-07T07:13:46;36.57;;;16.27;;
3643;SDS011;1838;50.742;7.158;2024-01-07T07:16:11;33.23;;;16.20;;
3643;SDS011;1838;50.742;7.158;2024-01-07T07:18:37;35.47;;;16.10;;
3643;SDS011;1838;50.742;7.158;2024-01-07T07:21:02;31.63;;;18.03;;
3643;SDS011;1838;50.742;7.158;2024-01-07T07:23:28;40.10;;;17.23;;
3643;SDS011;1838;50.742;7.158;2024-01-07T07:25:54;34.27;;;16.87;;
3643;SDS011;1838;50.742;7.158;2024-01-07T07:28:20;40.73;;;17.23;;
3643;SDS011;1838;50.742;7.158;2024-01-07T07:30:45;42.30;;;18.93;;
3643;SDS011;1838;50.742;7.158;2024-01-07T07:33:11;39.10;;;17.53;;
3643;SDS011;1838;50.742;7.158;2024-01-07T07:35:36;38.20;;;17.00;;
3643;SDS011;1838;50.742;7.158;2024-01-07T07:38:04;45.85;;;18.17;;
3643;SDS011;1838;50.742;7.158;2024-01-07T07:40:30;40.17;;;17.87;;
3643;SDS011;1838;50.742;7.158;2024-01-07T07:42:55;38.23;;;18.33;;
3643;SDS011;1838;50.742;7.158;2024-01-07T07:45:21;43.00;;;18.20;;
3643;SDS011;1838;50.742;7.158;2024-01-07T07:47:47;47.67;;;19.13;;
3643;SDS011;1838;50.742;7.158;2024-01-07T07:50:12;42.97;;;18.00;;
3643;SDS011;1838;50.742;7.158;2024-01-07T07:52:38;38.13;;;16.63;;
3643;SDS011;1838;50.742;7.158;2024-01-07T07:55:03;50.40;;;19.20;;
3643;SDS011;1838;50.742;7.158;2024-01-07T07:57:31;45.00;;;18.20;;
3643;SDS011;1838;50.742;7.158;2024-01-07T07:59:57;45.00;;;18.67;;
3643;SDS011;1838;50.742;7.158;2024-01-07T08:02:22;42.00;;;17.67;;
3643;SDS011;1838;50.742;7.158;2024-01-07T08:04:48;38.67;;;17.47;;
3643;SDS011;1838;50.742;7.158;2024-01-07T08:07:13;39.77;;;18.30;;
3643;SDS011;1838;50.742;7.158;2024-01-07T08:09:39;36.37;;;16.50;;
3643;SDS011;1838;50.742;7.158;2024-01-07T08:12:05;34.57;;;17.23;;
3643;SDS011;1838;50.742;7.158;2024-01-07T08:14:31;41.47;;;17.90;;
3643;SDS011;1838;50.742;7.158;2024-01-07T08:16:57;39.60;;;17.87;;
3643;SDS011;1838;50.742;7.158;2024-01-07T08:19:23;36.63;;;17.20;;
3643;SDS011;1838;50.742;7.158;2024-01-07T08:21:48;37.50;;;17.40;;
3643;SDS011;1838;50.742;7.158;2024-01-07T08:24:14;40.07;;;16.83;;
3643;SDS011;1838;50.742;7.158;2024-01-07T08:26:39;38.40;;;18.50;;
3643;SDS011;1838;50.742;7.158;2024-01-07T08:29:05;37.70;;;16.80;;
3643;SDS011;1838;50.742;7.158;2024-01-07T08:31:31;40.10;;;17.67;;
3643;SDS011;1838;50.742;7.158;2024-01-07T08:33:57;39.60;;;17.50;;
3643;SDS011;1838;50.742;7.158;2024-01-07T08:36:22;33.70;;;18.47;;
3643;SDS011;1838;50.742;7.158;2024-01-07T08:38:48;30.70;;;16.37;;
3643;SDS011;1838;50.742;7.158;2024-01-07T08:41:17;35.43;;;18.30;;
3643;SDS011;1838;50.742;7.158;2024-01-07T08:43:42;36.17;;;17.57;;
3643;SDS011;1838;50.742;7.158;2024-01-07T08:46:09;33.13;;;15.63;;
3643;SDS011;1838;50.742;7.158;2024-01-07T08:48:35;36.07;;;16.13;;
3643;SDS011;1838;50.742;7.158;2024-01-07T08:51:01;33.87;;;16.47;;
3643;SDS011;1838;50.742;7.158;2024-01-07T08:53:27;32.53;;;16.37;;
3643;SDS011;1838;50.742;7.158;2024-01-07T08:55:52;30.10;;;15.17;;
3643;SDS011;1838;50.742;7.158;2024-01-07T08:58:18;33.10;;;15.57;;
3643;SDS011;1838;50.742;7.158;2024-01-07T09:00:43;37.27;;;16.13;;
3643;SDS011;1838;50.742;7.158;2024-01-07T09:03:09;32.80;;;16.07;;
3643;SDS011;1838;50.742;7.158;2024-01-07T09:05:35;35.23;;;15.30;;
3643;SDS011;1838;50.742;7.158;2024-01-07T09:08:01;34.27;;;17.43;;
3643;SDS011;1838;50.742;7.158;2024-01-07T09:10:27;26.57;;;15.30;;
3643;SDS011;1838;50.742;7.158;2024-01-07T09:12:52;35.70;;;17.53;;
3643;SDS011;1838;50.742;7.158;2024-01-07T09:15:18;32.47;;;15.70;;
3643;SDS011;1838;50.742;7.158;2024-01-07T09:17:45;29.87;;;15.03;;
3643;SDS011;1838;50.742;7.158;2024-01-07T09:20:11;28.47;;;14.60;;
3643;SDS011;1838;50.742;7.158;2024-01-07T09:22:37;30.20;;;14.73;;
3643;SDS011;1838;50.742;7.158;2024-01-07T09:25:03;28.37;;;15.27;;
3643;SDS011;1838;50.742;7.158;2024-01-07T09:27:29;34.23;;;14.97;;
3643;SDS011;1838;50.742;7.158;2024-01-07T09:29:55;34.53;;;16.13;;
3643;SDS011;1838;50.742;7.158;2024-01-07T09:32:20;26.30;;;14.90;;
3643;SDS011;1838;50.742;7.158;2024-01-07T09:34:46;40.57;;;17.30;;
3643;SDS011;1838;50.742;7.158;2024-01-07T09:37:11;30.10;;;15.93;;
3643;SDS011;1838;50.742;7.158;2024-01-07T09:39:40;34.50;;;16.50;;
3643;SDS011;1838;50.742;7.158;2024-01-07T09:42:13;28.42;;;14.88;;
3643;SDS011;1838;50.742;7.158;2024-01-07T09:44:43;35.83;;;16.87;;
3643;SDS011;1838;50.742;7.158;2024-01-07T09:47:14;35.40;;;16.50;;
3643;SDS011;1838;50.742;7.158;2024-01-07T09:49:40;30.10;;;14.83;;
3643;SDS011;1838;50.742;7.158;2024-01-07T09:52:10;44.80;;;17.00;;
3643;SDS011;1838;50.742;7.158;2024-01-07T09:54:36;34.43;;;15.27;;
3643;SDS011;1838;50.742;7.158;2024-01-07T09:57:03;42.90;;;17.97;;
3643;SDS011;1838;50.742;7.158;2024-01-07T09:59:31;33.60;;;16.10;;
3643;SDS011;1838;50.742;7.158;2024-01-07T10:01:57;38.30;;;18.13;;
3643;SDS011;1838;50.742;7.158;2024-01-07T10:04:23;32.63;;;16.80;;
3643;SDS011;1838;50.742;7.158;2024-01-07T10:06:49;36.70;;;17.27;;
3643;SDS011;1838;50.742;7.158;2024-01-07T10:09:15;34.30;;;16.80;;
3643;SDS011;1838;50.742;7.158;2024-01-07T10:11:42;38.63;;;16.47;;
3643;SDS011;1838;50.742;7.158;2024-01-07T10:14:08;32.90;;;16.03;;
3643;SDS011;1838;50.742;7.158;2024-01-07T10:16:34;37.60;;;18.07;;
3643;SDS011;1838;50.742;7.158;2024-01-07T10:18:59;35.13;;;16.30;;
3643;SDS011;1838;50.742;7.158;2024-01-07T10:21:25;44.33;;;18.73;;
3643;SDS011;1838;50.742;7.158;2024-01-07T10:23:50;38.47;;;17.73;;
3643;SDS011;1838;50.742;7.158;2024-01-07T10:26:32;34.70;;;16.90;;
3643;SDS011;1838;50.742;7.158;2024-01-07T10:28:57;33.80;;;16.50;;
3643;SDS011;1838;50.742;7.158;2024-01-07T10:31:23;38.97;;;18.00;;
3643;SDS011;1838;50.742;7.158;2024-01-07T10:33:49;36.03;;;17.27;;
3643;SDS011;1838;50.742;7.158;2024-01-07T10:36:15;34.97;;;17.90;;
3643;SDS011;1838;50.742;7.158;2024-01-07T10:38:41;36.23;;;17.40;;
3643;SDS011;1838;50.742;7.158;2024-01-07T10:41:09;45.57;;;18.30;;
3643;SDS011;1838;50.742;7.158;2024-01-07T10:43:36;41.00;;;18.90;;
3643;SDS011;1838;50.742;7.158;2024-01-07T10:46:04;34.78;;;17.25;;
3643;SDS011;1838;50.742;7.158;2024-01-07T10:48:30;32.80;;;15.90;;
3643;SDS011;1838;50.742;7.158;2024-01-07T10:50:58;35.60;;;17.53;;
3643;SDS011;1838;50.742;7.158;2024-01-07T10:53:25;36.80;;;17.73;;
3643;SDS011;1838;50.742;7.158;2024-01-07T10:55:59;35.90;;;18.27;;
3643;SDS011;1838;50.742;7.158;2024-01-07T10:58:29;37.23;;;18.53;;
3643;SDS011;1838;50.742;7.158;2024-01-07T11:01:01;34.17;;;16.90;;
3643;SDS011;1838;50.742;7.158;2024-01-07T11:06:23;30.60;;;16.30;;
3643;SDS011;1838;50.742;7.158;2024-01-07T11:09:06;31.53;;;15.03;;
3643;SDS011;1838;50.742;7.158;2024-01-07T11:11:46;30.37;;;15.17;;
3643;SDS011;1838;50.742;7.158;2024-01-07T11:17:04;30.47;;;15.20;;
3643;SDS011;1838;50.742;7.158;2024-01-07T11:19:31;34.50;;;16.63;;
3643;SDS011;1838;50.742;7.158;2024-01-07T11:24:49;25.40;;;14.10;;
3643;SDS011;1838;50.742;7.158;2024-01-07T11:27:15;25.00;;;13.53;;
3643;SDS011;1838;50.742;7.158;2024-01-07T11:29:42;28.70;;;14.87;;
3643;SDS011;1838;50.742;7.158;2024-01-07T11:32:07;29.07;;;14.30;;
3643;SDS011;1838;50.742;7.158;2024-01-07T11:34:43;28.90;;;14.13;;
3643;SDS011;1838;50.742;7.158;2024-01-07T11:37:11;27.23;;;16.00;;
3643;SDS011;1838;50.742;7.158;2024-01-07T11:39:38;31.60;;;14.93;;
3643;SDS011;1838;50.742;7.158;2024-01-07T11:42:06;29.77;;;14.50;;
3643;SDS011;1838;50.742;7.158;2024-01-07T11:44:33;28.40;;;15.10;;
3643;SDS011;1838;50.742;7.158;2024-01-07T11:47:01;31.47;;;15.47;;
3643;SDS011;1838;50.742;7.158;2024-01-07T11:49:27;33.90;;;16.57;;
3643;SDS011;1838;50.742;7.158;2024-01-07T11:51:53;31.97;;;15.93;;
3643;SDS011;1838;50.742;7.158;2024-01-07T11:54:19;25.63;;;14.90;;
3643;SDS011;1838;50.742;7.158;2024-01-07T11:56:44;27.53;;;16.00;;
3643;SDS011;1838;50.742;7.158;2024-01-07T11:59:10;31.60;;;15.27;;
3643;SDS011;1838;50.742;7.158;2024-01-07T12:01:35;35.27;;;16.57;;
3643;SDS011;1838;50.742;7.158;2024-01-07T12:04:01;28.50;;;16.10;;
3643;SDS011;1838;50.742;7.158;2024-01-07T12:06:26;31.90;;;17.00;;
3643;SDS011;1838;50.742;7.158;2024-01-07T12:08:52;31.37;;;16.37;;
3643;SDS011;1838;50.742;7.158;2024-01-07T12:11:18;28.37;;;16.03;;
3643;SDS011;1838;50.742;7.158;2024-01-07T12:13:44;35.87;;;16.63;;
3643;SDS011;1838;50.742;7.158;2024-01-07T12:16:10;29.90;;;16.50;;
3643;SDS011;1838;50.742;7.158;2024-01-07T12:18:36;39.63;;;18.10;;
3643;SDS011;1838;50.742;7.158;2024-01-07T12:21:03;35.17;;;18.50;;
3643;SDS011;1838;50.742;7.158;2024-01-07T12:23:28;31.87;;;17.47;;
3643;SDS011;1838;50.742;7.158;2024-01-07T12:25:59;33.53;;;16.90;;
3643;SDS011;1838;50.742;7.158;2024-01-07T12:28:36;33.13;;;17.20;;
3643;SDS011;1838;50.742;7.158;2024-01-07T12:31:02;39.93;;;16.93;;
3643;SDS011;1838;50.742;7.158;2024-01-07T12:33:29;28.73;;;16.03;;
3643;SDS011;1838;50.742;7.158;2024-01-07T12:35:56;32.90;;;16.20;;
3643;SDS011;1838;50.742;7.158;2024-01-07T12:38:25;34.07;;;17.37;;
3643;SDS011;1838;50.742;7.158;2024-01-07T12:40:52;33.70;;;17.50;;
3643;SDS011;1838;50.742;7.158;2024-01-07T12:43:18;33.57;;;17.03;;
3643;SDS011;1838;50.742;7.158;2024-01-07T12:45:44;36.53;;;17.50;;
3643;SDS011;1838;50.742;7.158;2024-01-07T12:48:09;32.47;;;16.60;;
3643;SDS011;1838;50.742;7.158;2024-01-07T12:50:35;28.60;;;16.00;;
3643;SDS011;1838;50.742;7.158;2024-01-07T12:53:01;30.43;;;15.43;;
3643;SDS011;1838;50.742;7.158;2024-01-07T12:55:26;23.73;;;14.30;;
3643;SDS011;1838;50.742;7.158;2024-01-07T12:57:52;30.37;;;14.87;;
3643;SDS011;1838;50.742;7.158;2024-01-07T13:00:19;25.13;;;15.40;;
3643;SDS011;1838;50.742;7.158;2024-01-07T13:02:45;28.30;;;15.20;;
3643;SDS011;1838;50.742;7.158;2024-01-07T13:05:10;31.87;;;15.40;;
3643;SDS011;1838;50.742;7.158;2024-01-07T13:07:36;26.13;;;14.57;;
3643;SDS011;1838;50.742;7.158;2024-01-07T13:10:01;25.67;;;14.50;;
3643;SDS011;1838;50.742;7.158;2024-01-07T13:12:27;21.20;;;12.90;;
3643;SDS011;1838;50.742;7.158;2024-01-07T13:14:52;27.70;;;14.30;;
3643;SDS011;1838;50.742;7.158;2024-01-07T13:17:18;27.60;;;14.77;;
3643;SDS011;1838;50.742;7.158;2024-01-07T13:19:44;27.80;;;13.93;;
3643;SDS011;1838;50.742;7.158;2024-01-07T13:22:13;29.00;;;14.77;;
3643;SDS011;1838;50.742;7.158;2024-01-07T13:24:41;26.60;;;13.60;;
3643;SDS011;1838;50.742;7.158;2024-01-07T13:27:07;27.70;;;14.40;;
3643;SDS011;1838;50.742;7.158;2024-01-07T13:29:33;25.23;;;13.20;;
3643;SDS011;1838;50.742;7.158;2024-01-07T13:32:02;25.50;;;14.80;;
3643;SDS011;1838;50.742;7.158;2024-01-07T13:34:28;25.43;;;12.60;;
3643;SDS011;1838;50.742;7.158;2024-01-07T13:36:55;22.33;;;12.80;;
3643;SDS011;1838;50.742;7.158;2024-01-07T13:39:20;27.20;;;12.50;;
3643;SDS011;1838;50.742;7.158;2024-01-07T13:41:46;26.40;;;14.13;;
3643;SDS011;1838;50.742;7.158;2024-01-07T13:44:13;24.67;;;13.90;;
3643;SDS011;1838;50.742;7.158;2024-01-07T13:46:45;23.50;;;11.40;;
3643;SDS011;1838;50.742;7.158;2024-01-07T13:49:12;20.87;;;11.47;;
3643;SDS011;1838;50.742;7.158;2024-01-07T13:51:38;20.17;;;11.93;;
3643;SDS011;1838;50.742;7.158;2024-01-07T13:54:04;43.97;;;14.00;;
3643;SDS011;1838;50.742;7.158;2024-01-07T13:56:30;20.67;;;12.50;;
3643;SDS011;1838;50.742;7.158;2024-01-07T13:58:56;20.37;;;11.80;;
3643;SDS011;1838;50.742;7.158;2024-01-07T14:01:22;15.27;;;9.87;;
3643;SDS011;1838;50.742;7.158;2024-01-07T14:03:47;16.40;;;10.00;;
3643;SDS011;1838;50.742;7.158;2024-01-07T14:06:13;17.63;;;10.10;;
3643;SDS011;1838;50.742;7.158;2024-01-07T14:08:38;18.77;;;9.70;;
3643;SDS011;1838;50.742;7.158;2024-01-07T14:11:04;21.10;;;9.60;;
3643;SDS011;1838;50.742;7.158;2024-01-07T14:13:32;18.30;;;9.30;;
3643;SDS011;1838;50.742;7.158;2024-01-07T14:15:57;16.53;;;9.33;;
3643;SDS011;1838;50.742;7.158;2024-01-07T14:18:23;16.03;;;7.97;;
3643;SDS011;1838;50.742;7.158;2024-01-07T14:20:48;16.63;;;8.07;;
3643;SDS011;1838;50.742;7.158;2024-01-07T14:23:14;14.27;;;7.40;;
3643;SDS011;1838;50.742;7.158;2024-01-07T14:25:39;10.53;;;7.00;;
3643;SDS011;1838;50.742;7.158;2024-01-07T14:28:08;9.97;;;5.70;;
3643;SDS011;1838;50.742;7.158;2024-01-07T14:30:33;9.43;;;6.00;;
3643;SDS011;1838;50.742;7.158;2024-01-07T14:32:59;12.17;;;7.03;;
3643;SDS011;1838;50.742;7.158;2024-01-07T14:35:24;10.13;;;6.93;;
3643;SDS011;1838;50.742;7.158;2024-01-07T14:37:51;13.47;;;6.97;;
3643;SDS011;1838;50.742;7.158;2024-01-07T14:40:17;9.80;;;6.63;;
3643;SDS011;1838;50.742;7.158;2024-01-07T14:42:43;11.03;;;6.60;;
3643;SDS011;1838;50.742;7.158;2024-01-07T14:45:08;10.93;;;6.30;;
3643;SDS011;1838;50.742;7.158;2024-01-07T14:47:34;11.87;;;6.63;;
3643;SDS011;1838;50.742;7.158;2024-01-07T14:50:00;10.60;;;6.80;;